sensor_id;sensor_type;location;lat;lon;timestamp;temperature;humidity
26254;DHT22;53339;51.378;0.094;2022-10-16T00:01:41;12.90;78.10
26254;DHT22;53339;51.378;0.094;2022-10-16T00:04:09;12.80;78.20
26254;DHT22;53339;51.378;0.094;2022-10-16T00:06:37;12.80;78.10
26254;DHT22;53339;51.378;0.094;2022-10-16T00:09:11;12.90;78.10
26254;DHT22;53339;51.378;0.094;2022-10-16T00:11:41;12.90;78.20
26254;DHT22;53339;51.378;0.094;2022-10-16T00:14:12;13.00;78.30
26254;DHT22;53339;51.378;0.094;2022-10-16T00:16:41;13.10;78.30
26254;DHT22;53339;51.378;0.094;2022-10-16T00:19:11;13.10;78.30
26254;DHT22;53339;51.378;0.094;2022-10-16T00:21:39;13.20;78.30
26254;DHT22;53339;51.378;0.094;2022-10-16T00:24:25;13.10;78.60
26254;DHT22;53339;51.378;0.094;2022-10-16T00:26:53;13.20;78.50
26254;DHT22;53339;51.378;0.094;2022-10-16T00:29:24;13.20;78.40
26254;DHT22;53339;51.378;0.094;2022-10-16T00:31:51;13.10;78.00
26254;DHT22;53339;51.378;0.094;2022-10-16T00:34:19;13.10;77.90
26254;DHT22;53339;51.378;0.094;2022-10-16T00:36:47;13.00;77.70
26254;DHT22;53339;51.378;0.094;2022-10-16T00:39:15;12.90;77.90
26254;DHT22;53339;51.378;0.094;2022-10-16T00:41:46;12.80;77.80
26254;DHT22;53339;51.378;0.094;2022-10-16T00:50:35;12.70;78.40
26254;DHT22;53339;51.378;0.094;2022-10-16T00:53:02;12.70;78.50
26254;DHT22;53339;51.378;0.094;2022-10-16T00:55:30;12.70;78.60
26254;DHT22;53339;51.378;0.094;2022-10-16T00:58:00;12.70;78.60
26254;DHT22;53339;51.378;0.094;2022-10-16T01:00:27;12.70;78.70
26254;DHT22;53339;51.378;0.094;2022-10-16T01:02:57;12.70;78.80
26254;DHT22;53339;51.378;0.094;2022-10-16T01:05:33;12.60;78.90
26254;DHT22;53339;51.378;0.094;2022-10-16T01:10:43;12.60;79.30
26254;DHT22;53339;51.378;0.094;2022-10-16T01:13:32;12.60;79.50
26254;DHT22;53339;51.378;0.094;2022-10-16T01:16:18;12.50;79.70
26254;DHT22;53339;51.378;0.094;2022-10-16T01:19:17;12.50;79.90
26254;DHT22;53339;51.378;0.094;2022-10-16T01:21:43;12.50;80.10
26254;DHT22;53339;51.378;0.094;2022-10-16T01:29:44;12.40;80.70
26254;DHT22;53339;51.378;0.094;2022-10-16T01:35:27;12.40;80.90
26254;DHT22;53339;51.378;0.094;2022-10-16T01:38:16;12.40;81.20
26254;DHT22;53339;51.378;0.094;2022-10-16T01:40:49;12.40;81.30
26254;DHT22;53339;51.378;0.094;2022-10-16T01:43:21;12.40;81.30
26254;DHT22;53339;51.378;0.094;2022-10-16T01:45:52;12.40;81.40
26254;DHT22;53339;51.378;0.094;2022-10-16T01:48:21;12.30;81.40
26254;DHT22;53339;51.378;0.094;2022-10-16T01:50:59;12.30;81.50
26254;DHT22;53339;51.378;0.094;2022-10-16T01:53:28;12.30;81.70
26254;DHT22;53339;51.378;0.094;2022-10-16T01:55:58;12.40;81.90
26254;DHT22;53339;51.378;0.094;2022-10-16T01:58:28;12.50;82.00
26254;DHT22;53339;51.378;0.094;2022-10-16T02:00:58;12.50;81.90
26254;DHT22;53339;51.378;0.094;2022-10-16T02:03:25;12.60;81.80
26254;DHT22;53339;51.378;0.094;2022-10-16T02:05:56;12.70;81.60
26254;DHT22;53339;51.378;0.094;2022-10-16T02:08:27;12.80;81.40
26254;DHT22;53339;51.378;0.094;2022-10-16T02:10:56;12.80;81.20
26254;DHT22;53339;51.378;0.094;2022-10-16T02:13:32;12.90;81.00
26254;DHT22;53339;51.378;0.094;2022-10-16T02:16:03;12.90;80.70
26254;DHT22;53339;51.378;0.094;2022-10-16T02:18:35;13.00;80.80
26254;DHT22;53339;51.378;0.094;2022-10-16T02:21:17;13.00;80.60
26254;DHT22;53339;51.378;0.094;2022-10-16T02:24:02;13.10;80.30
26254;DHT22;53339;51.378;0.094;2022-10-16T02:26:37;13.10;79.90
26254;DHT22;53339;51.378;0.094;2022-10-16T02:29:10;13.10;79.60
26254;DHT22;53339;51.378;0.094;2022-10-16T02:31:46;13.10;79.30
26254;DHT22;53339;51.378;0.094;2022-10-16T02:34:15;13.10;79.30
26254;DHT22;53339;51.378;0.094;2022-10-16T02:36:44;13.00;79.10
26254;DHT22;53339;51.378;0.094;2022-10-16T02:39:23;12.90;78.90
26254;DHT22;53339;51.378;0.094;2022-10-16T02:41:53;12.80;78.70
26254;DHT22;53339;51.378;0.094;2022-10-16T02:44:21;12.70;79.00
26254;DHT22;53339;51.378;0.094;2022-10-16T02:46:48;12.70;78.90
26254;DHT22;53339;51.378;0.094;2022-10-16T02:49:18;12.60;78.90
26254;DHT22;53339;51.378;0.094;2022-10-16T02:51:46;12.60;79.10
26254;DHT22;53339;51.378;0.094;2022-10-16T02:54:14;12.60;79.10
26254;DHT22;53339;51.378;0.094;2022-10-16T02:56:41;12.60;79.20
26254;DHT22;53339;51.378;0.094;2022-10-16T02:59:09;12.50;79.30
26254;DHT22;53339;51.378;0.094;2022-10-16T03:01:37;12.50;79.30
26254;DHT22;53339;51.378;0.094;2022-10-16T03:04:04;12.40;79.20
26254;DHT22;53339;51.378;0.094;2022-10-16T03:06:32;12.40;79.10
26254;DHT22;53339;51.378;0.094;2022-10-16T03:09:00;12.40;79.10
26254;DHT22;53339;51.378;0.094;2022-10-16T03:11:27;12.40;79.00
26254;DHT22;53339;51.378;0.094;2022-10-16T03:13:55;12.40;78.80
26254;DHT22;53339;51.378;0.094;2022-10-16T03:16:23;12.40;78.70
26254;DHT22;53339;51.378;0.094;2022-10-16T03:18:50;12.30;78.70
26254;DHT22;53339;51.378;0.094;2022-10-16T03:21:19;12.30;78.60
26254;DHT22;53339;51.378;0.094;2022-10-16T03:23:52;12.30;78.60
26254;DHT22;53339;51.378;0.094;2022-10-16T03:26:19;12.30;78.30
26254;DHT22;53339;51.378;0.094;2022-10-16T03:28:47;12.20;78.30
26254;DHT22;53339;51.378;0.094;2022-10-16T03:31:15;12.20;78.00
26254;DHT22;53339;51.378;0.094;2022-10-16T03:33:44;12.30;77.80
26254;DHT22;53339;51.378;0.094;2022-10-16T03:36:16;12.20;77.80
26254;DHT22;53339;51.378;0.094;2022-10-16T03:38:43;12.20;77.60
26254;DHT22;53339;51.378;0.094;2022-10-16T03:41:11;12.20;77.60
26254;DHT22;53339;51.378;0.094;2022-10-16T03:43:38;12.20;77.50
26254;DHT22;53339;51.378;0.094;2022-10-16T03:46:06;12.20;77.60
26254;DHT22;53339;51.378;0.094;2022-10-16T03:48:34;12.20;77.70
26254;DHT22;53339;51.378;0.094;2022-10-16T03:51:01;12.20;77.60
26254;DHT22;53339;51.378;0.094;2022-10-16T03:53:29;12.20;77.50
26254;DHT22;53339;51.378;0.094;2022-10-16T03:55:57;12.20;77.50
26254;DHT22;53339;51.378;0.094;2022-10-16T03:58:25;12.20;77.50
26254;DHT22;53339;51.378;0.094;2022-10-16T04:00:53;12.10;77.50
26254;DHT22;53339;51.378;0.094;2022-10-16T04:03:21;12.10;77.70
26254;DHT22;53339;51.378;0.094;2022-10-16T04:05:52;12.10;77.80
26254;DHT22;53339;51.378;0.094;2022-10-16T04:08:20;12.10;77.90
26254;DHT22;53339;51.378;0.094;2022-10-16T04:10:48;12.10;78.10
26254;DHT22;53339;51.378;0.094;2022-10-16T04:13:16;12.00;78.30
26254;DHT22;53339;51.378;0.094;2022-10-16T04:15:44;12.00;78.40
26254;DHT22;53339;51.378;0.094;2022-10-16T04:18:12;12.00;78.60
26254;DHT22;53339;51.378;0.094;2022-10-16T04:20:40;12.00;78.70
26254;DHT22;53339;51.378;0.094;2022-10-16T04:23:08;11.90;78.90
26254;DHT22;53339;51.378;0.094;2022-10-16T04:25:36;11.90;79.10
26254;DHT22;53339;51.378;0.094;2022-10-16T04:28:03;11.90;79.30
26254;DHT22;53339;51.378;0.094;2022-10-16T04:30:31;11.80;79.50
26254;DHT22;53339;51.378;0.094;2022-10-16T04:33:00;11.80;79.60
26254;DHT22;53339;51.378;0.094;2022-10-16T04:35:33;11.70;79.80
26254;DHT22;53339;51.378;0.094;2022-10-16T04:38:00;11.70;80.00
26254;DHT22;53339;51.378;0.094;2022-10-16T04:40:28;11.70;80.10
26254;DHT22;53339;51.378;0.094;2022-10-16T04:42:55;11.70;80.20
26254;DHT22;53339;51.378;0.094;2022-10-16T04:45:24;11.60;80.30
26254;DHT22;53339;51.378;0.094;2022-10-16T04:47:58;11.60;80.30
26254;DHT22;53339;51.378;0.094;2022-10-16T04:50:27;11.60;80.40
26254;DHT22;53339;51.378;0.094;2022-10-16T04:53:07;11.60;80.50
26254;DHT22;53339;51.378;0.094;2022-10-16T04:55:34;11.60;80.50
26254;DHT22;53339;51.378;0.094;2022-10-16T04:58:03;11.60;80.50
26254;DHT22;53339;51.378;0.094;2022-10-16T05:00:36;11.60;80.60
26254;DHT22;53339;51.378;0.094;2022-10-16T05:03:04;11.60;80.70
26254;DHT22;53339;51.378;0.094;2022-10-16T05:05:35;11.60;80.70
26254;DHT22;53339;51.378;0.094;2022-10-16T05:08:03;11.60;80.80
26254;DHT22;53339;51.378;0.094;2022-10-16T05:10:31;11.60;80.90
26254;DHT22;53339;51.378;0.094;2022-10-16T05:13:00;11.60;80.90
26254;DHT22;53339;51.378;0.094;2022-10-16T05:15:30;11.60;80.90
26254;DHT22;53339;51.378;0.094;2022-10-16T05:17:58;11.60;80.90
26254;DHT22;53339;51.378;0.094;2022-10-16T05:20:26;11.60;80.60
26254;DHT22;53339;51.378;0.094;2022-10-16T05:22:54;11.60;80.30
26254;DHT22;53339;51.378;0.094;2022-10-16T05:25:21;11.60;79.90
26254;DHT22;53339;51.378;0.094;2022-10-16T05:27:49;11.70;79.80
26254;DHT22;53339;51.378;0.094;2022-10-16T05:30:17;11.60;79.60
26254;DHT22;53339;51.378;0.094;2022-10-16T05:32:50;11.60;79.30
26254;DHT22;53339;51.378;0.094;2022-10-16T05:35:18;11.70;79.30
26254;DHT22;53339;51.378;0.094;2022-10-16T05:37:47;11.70;79.10
26254;DHT22;53339;51.378;0.094;2022-10-16T05:40:19;11.70;79.10
26254;DHT22;53339;51.378;0.094;2022-10-16T05:42:46;11.70;79.10
26254;DHT22;53339;51.378;0.094;2022-10-16T05:45:14;11.60;79.10
26254;DHT22;53339;51.378;0.094;2022-10-16T05:47:42;11.60;79.30
26254;DHT22;53339;51.378;0.094;2022-10-16T05:50:09;11.60;79.40
26254;DHT22;53339;51.378;0.094;2022-10-16T05:52:37;11.60;79.50
26254;DHT22;53339;51.378;0.094;2022-10-16T05:55:09;11.50;79.60
26254;DHT22;53339;51.378;0.094;2022-10-16T05:57:37;11.50;79.60
26254;DHT22;53339;51.378;0.094;2022-10-16T06:00:05;11.50;79.50
26254;DHT22;53339;51.378;0.094;2022-10-16T06:02:39;11.50;79.50
26254;DHT22;53339;51.378;0.094;2022-10-16T06:05:06;11.50;79.60
26254;DHT22;53339;51.378;0.094;2022-10-16T06:07:35;11.50;79.50
26254;DHT22;53339;51.378;0.094;2022-10-16T06:10:04;11.40;79.50
26254;DHT22;53339;51.378;0.094;2022-10-16T06:12:32;11.40;79.50
26254;DHT22;53339;51.378;0.094;2022-10-16T06:15:00;11.40;79.50
26254;DHT22;53339;51.378;0.094;2022-10-16T06:17:35;11.40;79.60
26254;DHT22;53339;51.378;0.094;2022-10-16T06:20:03;11.30;79.60
26254;DHT22;53339;51.378;0.094;2022-10-16T06:22:31;11.30;79.70
26254;DHT22;53339;51.378;0.094;2022-10-16T06:24:59;11.30;79.70
26254;DHT22;53339;51.378;0.094;2022-10-16T06:27:26;11.30;79.80
26254;DHT22;53339;51.378;0.094;2022-10-16T06:29:54;11.20;79.90
26254;DHT22;53339;51.378;0.094;2022-10-16T06:32:21;11.20;80.00
26254;DHT22;53339;51.378;0.094;2022-10-16T06:34:49;11.20;80.00
26254;DHT22;53339;51.378;0.094;2022-10-16T06:37:17;11.20;79.90
26254;DHT22;53339;51.378;0.094;2022-10-16T06:39:46;11.20;79.90
26254;DHT22;53339;51.378;0.094;2022-10-16T06:42:13;11.20;80.00
26254;DHT22;53339;51.378;0.094;2022-10-16T06:44:41;11.20;80.10
26254;DHT22;53339;51.378;0.094;2022-10-16T06:47:15;11.20;80.20
26254;DHT22;53339;51.378;0.094;2022-10-16T06:49:42;11.10;80.40
26254;DHT22;53339;51.378;0.094;2022-10-16T06:52:10;11.20;80.40
26254;DHT22;53339;51.378;0.094;2022-10-16T06:54:37;11.20;80.50
26254;DHT22;53339;51.378;0.094;2022-10-16T06:57:08;11.20;80.40
26254;DHT22;53339;51.378;0.094;2022-10-16T06:59:36;11.20;80.30
26254;DHT22;53339;51.378;0.094;2022-10-16T07:02:08;11.20;80.10
26254;DHT22;53339;51.378;0.094;2022-10-16T07:04:42;11.30;80.00
26254;DHT22;53339;51.378;0.094;2022-10-16T07:07:10;11.30;79.80
26254;DHT22;53339;51.378;0.094;2022-10-16T07:09:37;11.30;79.90
26254;DHT22;53339;51.378;0.094;2022-10-16T07:12:05;11.40;79.80
26254;DHT22;53339;51.378;0.094;2022-10-16T07:14:33;11.40;79.90
26254;DHT22;53339;51.378;0.094;2022-10-16T07:17:00;11.40;80.00
26254;DHT22;53339;51.378;0.094;2022-10-16T07:19:34;11.40;80.10
26254;DHT22;53339;51.378;0.094;2022-10-16T07:22:02;11.40;80.30
26254;DHT22;53339;51.378;0.094;2022-10-16T07:24:30;11.30;80.40
26254;DHT22;53339;51.378;0.094;2022-10-16T07:26:59;11.40;80.50
26254;DHT22;53339;51.378;0.094;2022-10-16T07:29:35;11.30;80.60
26254;DHT22;53339;51.378;0.094;2022-10-16T07:32:03;11.30;80.70
26254;DHT22;53339;51.378;0.094;2022-10-16T07:34:31;11.40;80.70
26254;DHT22;53339;51.378;0.094;2022-10-16T07:36:59;11.40;80.80
26254;DHT22;53339;51.378;0.094;2022-10-16T07:39:27;11.40;80.80
26254;DHT22;53339;51.378;0.094;2022-10-16T07:41:57;11.50;80.80
26254;DHT22;53339;51.378;0.094;2022-10-16T07:44:24;11.50;80.80
26254;DHT22;53339;51.378;0.094;2022-10-16T07:46:52;11.60;80.80
26254;DHT22;53339;51.378;0.094;2022-10-16T07:49:19;11.60;80.80
26254;DHT22;53339;51.378;0.094;2022-10-16T07:51:47;11.60;80.80
26254;DHT22;53339;51.378;0.094;2022-10-16T07:54:15;11.60;80.90
26254;DHT22;53339;51.378;0.094;2022-10-16T07:56:43;11.60;81.00
26254;DHT22;53339;51.378;0.094;2022-10-16T07:59:11;11.70;81.00
26254;DHT22;53339;51.378;0.094;2022-10-16T08:01:42;11.70;81.00
26254;DHT22;53339;51.378;0.094;2022-10-16T08:04:10;11.70;81.00
26254;DHT22;53339;51.378;0.094;2022-10-16T08:06:39;11.70;81.00
26254;DHT22;53339;51.378;0.094;2022-10-16T08:09:08;11.80;80.80
26254;DHT22;53339;51.378;0.094;2022-10-16T08:11:36;12.00;80.70
26254;DHT22;53339;51.378;0.094;2022-10-16T08:14:04;12.10;80.60
26254;DHT22;53339;51.378;0.094;2022-10-16T08:16:48;12.30;80.60
26254;DHT22;53339;51.378;0.094;2022-10-16T08:19:22;12.50;80.60
26254;DHT22;53339;51.378;0.094;2022-10-16T08:21:54;12.70;80.10
26254;DHT22;53339;51.378;0.094;2022-10-16T08:24:29;12.90;79.80
26254;DHT22;53339;51.378;0.094;2022-10-16T08:27:08;13.10;78.10
26254;DHT22;53339;51.378;0.094;2022-10-16T08:29:58;13.20;77.50
26254;DHT22;53339;51.378;0.094;2022-10-16T08:32:28;13.40;77.00
26254;DHT22;53339;51.378;0.094;2022-10-16T08:35:05;13.60;76.00
26254;DHT22;53339;51.378;0.094;2022-10-16T08:37:52;13.70;75.50
26254;DHT22;53339;51.378;0.094;2022-10-16T08:40:28;13.90;74.00
26254;DHT22;53339;51.378;0.094;2022-10-16T08:49:01;13.80;72.40
26254;DHT22;53339;51.378;0.094;2022-10-16T08:51:43;13.70;72.60
26254;DHT22;53339;51.378;0.094;2022-10-16T08:57:25;13.60;71.60
26254;DHT22;53339;51.378;0.094;2022-10-16T09:00:14;13.70;72.30
26254;DHT22;53339;51.378;0.094;2022-10-16T09:13:57;13.70;72.10
26254;DHT22;53339;51.378;0.094;2022-10-16T09:16:36;13.70;72.60
26254;DHT22;53339;51.378;0.094;2022-10-16T09:21:41;13.70;73.40
26254;DHT22;53339;51.378;0.094;2022-10-16T09:24:17;13.70;73.20
26254;DHT22;53339;51.378;0.094;2022-10-16T09:26:50;13.70;72.90
26254;DHT22;53339;51.378;0.094;2022-10-16T09:29:24;13.80;73.00
26254;DHT22;53339;51.378;0.094;2022-10-16T09:32:11;13.80;73.10
26254;DHT22;53339;51.378;0.094;2022-10-16T09:34:45;13.80;73.00
26254;DHT22;53339;51.378;0.094;2022-10-16T09:37:21;13.90;72.90
26254;DHT22;53339;51.378;0.094;2022-10-16T09:39:52;13.90;72.70
26254;DHT22;53339;51.378;0.094;2022-10-16T09:42:32;13.90;72.70
26254;DHT22;53339;51.378;0.094;2022-10-16T09:45:19;13.90;72.20
26254;DHT22;53339;51.378;0.094;2022-10-16T09:47:54;14.00;71.00
26254;DHT22;53339;51.378;0.094;2022-10-16T09:50:29;14.00;71.10
26254;DHT22;53339;51.378;0.094;2022-10-16T09:53:12;14.10;71.20
26254;DHT22;53339;51.378;0.094;2022-10-16T09:55:53;14.20;71.50
26254;DHT22;53339;51.378;0.094;2022-10-16T09:58:22;14.20;71.10
26254;DHT22;53339;51.378;0.094;2022-10-16T10:00:56;14.30;70.70
26254;DHT22;53339;51.378;0.094;2022-10-16T10:03:39;14.40;69.30
26254;DHT22;53339;51.378;0.094;2022-10-16T10:06:29;14.50;69.10
26254;DHT22;53339;51.378;0.094;2022-10-16T10:09:27;14.60;69.40
26254;DHT22;53339;51.378;0.094;2022-10-16T10:12:01;14.60;69.10
26254;DHT22;53339;51.378;0.094;2022-10-16T10:14:34;14.70;69.30
26254;DHT22;53339;51.378;0.094;2022-10-16T10:25:19;15.20;67.60
26254;DHT22;53339;51.378;0.094;2022-10-16T10:28:03;15.40;66.30
26254;DHT22;53339;51.378;0.094;2022-10-16T10:33:52;15.60;65.40
26254;DHT22;53339;51.378;0.094;2022-10-16T10:36:37;15.70;64.10
26254;DHT22;53339;51.378;0.094;2022-10-16T10:39:17;15.80;63.80
26254;DHT22;53339;51.378;0.094;2022-10-16T10:50:40;16.40;62.50
26254;DHT22;53339;51.378;0.094;2022-10-16T10:59:54;16.60;63.90
26254;DHT22;53339;51.378;0.094;2022-10-16T11:07:39;16.70;62.20
26254;DHT22;53339;51.378;0.094;2022-10-16T11:10:27;16.70;62.20
26254;DHT22;53339;51.378;0.094;2022-10-16T11:13:25;16.70;61.40
26254;DHT22;53339;51.378;0.094;2022-10-16T11:15:59;16.60;60.60
26254;DHT22;53339;51.378;0.094;2022-10-16T11:18:52;16.60;61.70
26254;DHT22;53339;51.378;0.094;2022-10-16T11:21:25;16.70;62.70
26254;DHT22;53339;51.378;0.094;2022-10-16T11:24:04;16.80;62.70
26254;DHT22;53339;51.378;0.094;2022-10-16T11:26:40;16.90;60.40
26254;DHT22;53339;51.378;0.094;2022-10-16T11:29:27;16.90;60.20
26254;DHT22;53339;51.378;0.094;2022-10-16T11:32:18;16.90;61.00
26254;DHT22;53339;51.378;0.094;2022-10-16T11:34:59;17.00;62.20
26254;DHT22;53339;51.378;0.094;2022-10-16T11:37:42;17.10;62.90
26254;DHT22;53339;51.378;0.094;2022-10-16T11:40:33;17.20;62.60
26254;DHT22;53339;51.378;0.094;2022-10-16T11:43:22;17.20;62.00
26254;DHT22;53339;51.378;0.094;2022-10-16T11:45:58;17.20;63.50
26254;DHT22;53339;51.378;0.094;2022-10-16T11:48:49;17.30;64.20
26254;DHT22;53339;51.378;0.094;2022-10-16T11:54:30;17.40;62.90
26254;DHT22;53339;51.378;0.094;2022-10-16T11:57:17;17.50;62.80
26254;DHT22;53339;51.378;0.094;2022-10-16T12:00:05;17.60;61.00
26254;DHT22;53339;51.378;0.094;2022-10-16T12:06:13;17.70;60.30
26254;DHT22;53339;51.378;0.094;2022-10-16T12:08:47;17.80;61.70
26254;DHT22;53339;51.378;0.094;2022-10-16T12:11:33;17.80;61.30
26254;DHT22;53339;51.378;0.094;2022-10-16T12:16:56;17.80;62.70
26254;DHT22;53339;51.378;0.094;2022-10-16T12:19:29;17.80;62.80
26254;DHT22;53339;51.378;0.094;2022-10-16T12:22:01;17.80;63.50
26254;DHT22;53339;51.378;0.094;2022-10-16T12:27:00;17.70;63.70
26254;DHT22;53339;51.378;0.094;2022-10-16T12:29:38;17.70;64.00
26254;DHT22;53339;51.378;0.094;2022-10-16T12:32:40;17.60;64.60
26254;DHT22;53339;51.378;0.094;2022-10-16T12:35:23;17.60;64.40
26254;DHT22;53339;51.378;0.094;2022-10-16T12:38:49;17.60;65.20
26254;DHT22;53339;51.378;0.094;2022-10-16T12:41:00;17.50;64.90
26254;DHT22;53339;51.378;0.094;2022-10-16T12:43:41;17.40;65.60
26254;DHT22;53339;51.378;0.094;2022-10-16T12:48:40;17.40;65.90
26254;DHT22;53339;51.378;0.094;2022-10-16T12:51:35;17.30;66.40
26254;DHT22;53339;51.378;0.094;2022-10-16T12:59:49;17.30;67.20
26254;DHT22;53339;51.378;0.094;2022-10-16T13:20:15;17.40;68.70
26254;DHT22;53339;51.378;0.094;2022-10-16T13:28:03;17.20;69.00
26254;DHT22;53339;51.378;0.094;2022-10-16T13:30:52;17.20;69.30
26254;DHT22;53339;51.378;0.094;2022-10-16T13:33:33;17.20;69.50
26254;DHT22;53339;51.378;0.094;2022-10-16T13:36:27;17.20;69.40
26254;DHT22;53339;51.378;0.094;2022-10-16T13:41:38;17.10;69.80
26254;DHT22;53339;51.378;0.094;2022-10-16T13:44:28;17.10;70.00
26254;DHT22;53339;51.378;0.094;2022-10-16T13:47:05;17.10;70.10
26254;DHT22;53339;51.378;0.094;2022-10-16T13:49:33;17.20;70.30
26254;DHT22;53339;51.378;0.094;2022-10-16T13:52:15;17.20;70.30
26254;DHT22;53339;51.378;0.094;2022-10-16T13:54:44;17.40;70.30
26254;DHT22;53339;51.378;0.094;2022-10-16T13:57:17;17.40;70.30
26254;DHT22;53339;51.378;0.094;2022-10-16T13:59:54;17.50;70.30
26254;DHT22;53339;51.378;0.094;2022-10-16T14:02:34;17.50;70.30
26254;DHT22;53339;51.378;0.094;2022-10-16T14:05:08;17.60;70.50
26254;DHT22;53339;51.378;0.094;2022-10-16T14:07:38;17.60;70.40
26254;DHT22;53339;51.378;0.094;2022-10-16T14:10:20;17.70;70.30
26254;DHT22;53339;51.378;0.094;2022-10-16T14:13:05;17.70;70.40
26254;DHT22;53339;51.378;0.094;2022-10-16T14:15:37;17.60;70.30
26254;DHT22;53339;51.378;0.094;2022-10-16T14:18:05;17.60;70.00
26254;DHT22;53339;51.378;0.094;2022-10-16T14:20:37;17.50;70.20
26254;DHT22;53339;51.378;0.094;2022-10-16T14:23:28;17.40;70.50
26254;DHT22;53339;51.378;0.094;2022-10-16T14:28:42;17.40;70.70
26254;DHT22;53339;51.378;0.094;2022-10-16T14:31:29;17.30;70.90
26254;DHT22;53339;51.378;0.094;2022-10-16T14:33:59;17.30;71.00
26254;DHT22;53339;51.378;0.094;2022-10-16T14:36:28;17.30;71.10
26254;DHT22;53339;51.378;0.094;2022-10-16T14:39:13;17.20;71.00
26254;DHT22;53339;51.378;0.094;2022-10-16T14:41:51;17.20;71.20
26254;DHT22;53339;51.378;0.094;2022-10-16T14:44:23;17.20;71.40
26254;DHT22;53339;51.378;0.094;2022-10-16T14:47:13;17.20;71.60
26254;DHT22;53339;51.378;0.094;2022-10-16T14:49:53;17.10;71.70
26254;DHT22;53339;51.378;0.094;2022-10-16T14:52:29;17.10;71.80
26254;DHT22;53339;51.378;0.094;2022-10-16T14:54:57;17.10;71.80
26254;DHT22;53339;51.378;0.094;2022-10-16T14:57:27;17.10;71.90
26254;DHT22;53339;51.378;0.094;2022-10-16T15:00:18;17.00;72.00
26254;DHT22;53339;51.378;0.094;2022-10-16T15:02:53;17.00;72.20
26254;DHT22;53339;51.378;0.094;2022-10-16T15:05:24;17.00;72.30
26254;DHT22;53339;51.378;0.094;2022-10-16T15:07:56;17.00;72.50
26254;DHT22;53339;51.378;0.094;2022-10-16T15:10:28;16.90;72.60
26254;DHT22;53339;51.378;0.094;2022-10-16T15:12:57;16.80;72.60
26254;DHT22;53339;51.378;0.094;2022-10-16T15:15:37;16.80;72.70
26254;DHT22;53339;51.378;0.094;2022-10-16T15:18:09;16.70;73.00
26254;DHT22;53339;51.378;0.094;2022-10-16T15:20:39;16.60;73.10
26254;DHT22;53339;51.378;0.094;2022-10-16T15:23:22;16.60;73.30
26254;DHT22;53339;51.378;0.094;2022-10-16T15:25:56;16.50;73.50
26254;DHT22;53339;51.378;0.094;2022-10-16T15:28:33;16.40;73.60
26254;DHT22;53339;51.378;0.094;2022-10-16T15:31:01;16.30;73.90
26254;DHT22;53339;51.378;0.094;2022-10-16T15:33:28;16.20;74.00
26254;DHT22;53339;51.378;0.094;2022-10-16T15:36:23;16.20;74.20
26254;DHT22;53339;51.378;0.094;2022-10-16T15:39:01;16.10;74.30
26254;DHT22;53339;51.378;0.094;2022-10-16T15:41:31;16.10;74.50
26254;DHT22;53339;51.378;0.094;2022-10-16T15:43:58;16.10;74.60
26254;DHT22;53339;51.378;0.094;2022-10-16T15:46:30;16.00;74.80
26254;DHT22;53339;51.378;0.094;2022-10-16T15:48:58;16.00;74.90
26254;DHT22;53339;51.378;0.094;2022-10-16T15:51:27;16.00;75.00
26254;DHT22;53339;51.378;0.094;2022-10-16T15:53:59;15.90;75.10
26254;DHT22;53339;51.378;0.094;2022-10-16T15:56:30;15.90;75.20
26254;DHT22;53339;51.378;0.094;2022-10-16T15:59:02;15.90;75.30
26254;DHT22;53339;51.378;0.094;2022-10-16T16:01:34;15.80;75.30
26254;DHT22;53339;51.378;0.094;2022-10-16T16:04:09;15.80;75.50
26254;DHT22;53339;51.378;0.094;2022-10-16T16:07:00;15.80;75.60
26254;DHT22;53339;51.378;0.094;2022-10-16T16:09:29;15.80;75.70
26254;DHT22;53339;51.378;0.094;2022-10-16T16:11:57;15.70;75.80
26254;DHT22;53339;51.378;0.094;2022-10-16T16:14:28;15.70;75.90
26254;DHT22;53339;51.378;0.094;2022-10-16T16:16:57;15.70;76.00
26254;DHT22;53339;51.378;0.094;2022-10-16T16:19:28;15.70;76.10
26254;DHT22;53339;51.378;0.094;2022-10-16T16:21:56;15.70;76.30
26254;DHT22;53339;51.378;0.094;2022-10-16T16:24:30;15.60;76.40
26254;DHT22;53339;51.378;0.094;2022-10-16T16:26:58;15.60;76.50
26254;DHT22;53339;51.378;0.094;2022-10-16T16:29:30;15.60;76.60
26254;DHT22;53339;51.378;0.094;2022-10-16T16:32:01;15.60;76.70
26254;DHT22;53339;51.378;0.094;2022-10-16T16:34:29;15.50;76.90
26254;DHT22;53339;51.378;0.094;2022-10-16T16:37:03;15.50;77.00
26254;DHT22;53339;51.378;0.094;2022-10-16T16:39:38;15.40;77.10
26254;DHT22;53339;51.378;0.094;2022-10-16T16:42:06;15.40;77.30
26254;DHT22;53339;51.378;0.094;2022-10-16T16:44:34;15.40;77.50
26254;DHT22;53339;51.378;0.094;2022-10-16T16:47:04;15.40;77.60
26254;DHT22;53339;51.378;0.094;2022-10-16T16:49:34;15.30;77.70
26254;DHT22;53339;51.378;0.094;2022-10-16T16:52:02;15.20;77.90
26254;DHT22;53339;51.378;0.094;2022-10-16T16:54:30;15.30;78.00
26254;DHT22;53339;51.378;0.094;2022-10-16T16:56:59;15.20;78.10
26254;DHT22;53339;51.378;0.094;2022-10-16T16:59:27;15.20;78.30
26254;DHT22;53339;51.378;0.094;2022-10-16T17:01:56;15.10;78.40
26254;DHT22;53339;51.378;0.094;2022-10-16T17:04:28;15.10;78.50
26254;DHT22;53339;51.378;0.094;2022-10-16T17:06:58;15.10;78.70
26254;DHT22;53339;51.378;0.094;2022-10-16T17:09:27;15.10;78.80
26254;DHT22;53339;51.378;0.094;2022-10-16T17:11:55;15.00;79.00
26254;DHT22;53339;51.378;0.094;2022-10-16T17:14:23;15.00;79.10
26254;DHT22;53339;51.378;0.094;2022-10-16T17:16:55;15.00;79.20
26254;DHT22;53339;51.378;0.094;2022-10-16T17:19:22;15.00;79.30
26254;DHT22;53339;51.378;0.094;2022-10-16T17:21:54;15.00;79.40
26254;DHT22;53339;51.378;0.094;2022-10-16T17:24:21;15.00;79.50
26254;DHT22;53339;51.378;0.094;2022-10-16T17:26:49;15.00;79.60
26254;DHT22;53339;51.378;0.094;2022-10-16T17:29:18;15.00;79.70
26254;DHT22;53339;51.378;0.094;2022-10-16T17:31:47;15.00;79.80
26254;DHT22;53339;51.378;0.094;2022-10-16T17:34:19;15.00;79.90
26254;DHT22;53339;51.378;0.094;2022-10-16T17:36:48;15.00;80.00
26254;DHT22;53339;51.378;0.094;2022-10-16T17:39:17;14.90;80.00
26254;DHT22;53339;51.378;0.094;2022-10-16T17:41:46;14.90;80.10
26254;DHT22;53339;51.378;0.094;2022-10-16T17:44:16;14.90;80.20
26254;DHT22;53339;51.378;0.094;2022-10-16T17:46:52;14.90;80.40
26254;DHT22;53339;51.378;0.094;2022-10-16T17:49:23;14.90;80.50
26254;DHT22;53339;51.378;0.094;2022-10-16T17:51:57;14.90;80.70
26254;DHT22;53339;51.378;0.094;2022-10-16T17:54:31;14.90;80.80
26254;DHT22;53339;51.378;0.094;2022-10-16T17:56:59;14.90;80.90
26254;DHT22;53339;51.378;0.094;2022-10-16T17:59:27;14.90;81.00
26254;DHT22;53339;51.378;0.094;2022-10-16T18:01:58;14.80;81.10
26254;DHT22;53339;51.378;0.094;2022-10-16T18:04:30;14.90;81.20
26254;DHT22;53339;51.378;0.094;2022-10-16T18:06:58;14.90;81.30